createdAt,value
2023-02-28T00:01:59.768Z,54.83
2023-02-28T00:04:28.479Z,56.37
2023-02-28T00:06:57.948Z,59.67
2023-02-28T00:09:26.179Z,62.30
2023-02-28T00:11:54.483Z,59.50
2023-02-28T00:14:24.419Z,58.63
2023-02-28T00:16:52.650Z,53.77
2023-02-28T00:19:20.955Z,60.10
2023-02-28T00:21:49.316Z,61.80
2023-02-28T00:24:19.457Z,58.40
2023-02-28T00:26:47.690Z,56.43
2023-02-28T00:29:16.468Z,58.17
2023-02-28T00:31:46.131Z,57.83
2023-02-28T00:34:15.282Z,54.30
2023-02-28T00:36:47.482Z,61.70
2023-02-28T00:39:15.678Z,60.83
2023-02-28T00:41:45.671Z,60.27
2023-02-28T00:44:16.507Z,61.13
2023-02-28T00:46:44.746Z,66.27
2023-02-28T00:49:12.860Z,59.13
2023-02-28T00:51:42.491Z,57.67
2023-02-28T00:54:10.622Z,61.57
2023-02-28T00:56:39.385Z,60.67
2023-02-28T00:59:10.450Z,60.00
2023-02-28T01:01:38.581Z,65.23
2023-02-28T01:04:09.493Z,57.03
2023-02-28T01:06:38.131Z,59.77
2023-02-28T01:09:08.174Z,59.67
2023-02-28T01:11:38.465Z,65.10
2023-02-28T01:14:08.468Z,62.67
2023-02-28T01:16:36.811Z,62.07
2023-02-28T01:19:05.466Z,64.67
2023-02-28T01:21:35.833Z,56.83
2023-02-28T01:24:06.977Z,56.97
2023-02-28T01:26:37.254Z,66.07
2023-02-28T01:29:12.542Z,59.40
2023-02-28T01:31:41.623Z,60.27
2023-02-28T01:34:10.161Z,60.60
2023-02-28T01:36:41.337Z,57.93
2023-02-28T01:39:09.537Z,58.23
2023-02-28T01:41:38.528Z,54.77
2023-02-28T01:44:10.492Z,58.43
2023-02-28T01:46:40.008Z,59.93
2023-02-28T01:49:13.542Z,71.77
2023-02-28T01:51:49.496Z,104.60
2023-02-28T01:54:21.503Z,99.07
2023-02-28T01:56:54.891Z,73.97
2023-02-28T01:59:29.478Z,71.17
2023-02-28T02:01:59.129Z,72.93
2023-02-28T02:04:34.545Z,68.40
2023-02-28T02:07:03.389Z,64.37
2023-02-28T02:09:31.552Z,63.63
2023-02-28T02:12:08.147Z,67.53
2023-02-28T02:14:58.508Z,63.97
2023-02-28T02:17:36.447Z,66.60
2023-02-28T02:20:43.508Z,64.83
2023-02-28T02:23:37.530Z,69.87
2023-02-28T02:26:24.368Z,66.53
2023-02-28T02:29:15.577Z,63.63
2023-02-28T02:32:10.643Z,61.87
2023-02-28T02:34:50.508Z,73.37
2023-02-28T02:37:32.335Z,65.63
2023-02-28T02:40:09.004Z,68.57
2023-02-28T02:42:47.519Z,67.03
2023-02-28T02:45:21.494Z,64.20
2023-02-28T02:47:51.567Z,64.60
2023-02-28T02:50:29.589Z,60.10
2023-02-28T02:53:03.506Z,61.53
2023-02-28T02:55:37.596Z,66.67
2023-02-28T02:58:10.466Z,58.93
2023-02-28T03:00:45.588Z,57.87
2023-02-28T03:03:16.153Z,58.67
2023-02-28T03:08:42.157Z,64.20
2023-02-28T03:11:15.982Z,63.10
2023-02-28T03:14:04.425Z,57.97
2023-02-28T03:16:44.510Z,62.07
2023-02-28T03:19:31.511Z,57.97
2023-02-28T03:22:15.477Z,61.07
2023-02-28T03:24:51.874Z,59.17
2023-02-28T03:27:27.523Z,54.70
2023-02-28T03:30:05.236Z,61.60
2023-02-28T03:32:39.707Z,56.33
2023-02-28T03:35:13.566Z,60.77
2023-02-28T03:37:47.510Z,60.10
2023-02-28T03:40:21.465Z,58.37
2023-02-28T03:42:56.339Z,55.87
2023-02-28T03:45:29.318Z,57.60
2023-02-28T03:48:03.122Z,56.30
2023-02-28T03:50:38.501Z,56.90
2023-02-28T03:53:13.018Z,61.57
2023-02-28T03:55:46.502Z,57.37
2023-02-28T03:58:23.281Z,54.47
2023-02-28T04:01:00.440Z,55.90
2023-02-28T04:03:29.503Z,55.50
2023-02-28T04:05:59.089Z,62.03
2023-02-28T04:08:29.527Z,59.43
2023-02-28T04:11:03.711Z,53.20
2023-02-28T04:13:33.522Z,55.37
2023-02-28T04:16:01.985Z,59.80
2023-02-28T04:18:30.207Z,52.53
2023-02-28T04:21:03.208Z,55.77
2023-02-28T04:23:33.197Z,59.00
2023-02-28T04:26:05.023Z,54.13
2023-02-28T04:28:33.167Z,51.63
2023-02-28T04:31:03.475Z,57.47
2023-02-28T04:33:34.273Z,56.40
2023-02-28T04:36:05.613Z,52.67
2023-02-28T04:38:37.882Z,53.60
2023-02-28T04:41:06.989Z,54.97
2023-02-28T04:43:35.106Z,55.80
2023-02-28T04:46:06.711Z,49.17
2023-02-28T04:48:36.693Z,56.37
2023-02-28T04:51:08.523Z,54.87
2023-02-28T04:53:41.342Z,51.70
2023-02-28T04:56:10.456Z,51.47
2023-02-28T04:58:39.369Z,57.30
2023-02-28T05:01:13.619Z,54.73
2023-02-28T05:03:42.625Z,58.13
2023-02-28T05:06:11.138Z,52.00
2023-02-28T05:08:44.495Z,55.07
2023-02-28T05:11:18.941Z,50.33
2023-02-28T05:13:52.001Z,53.20
2023-02-28T05:16:20.769Z,51.40
2023-02-28T05:18:54.834Z,53.27
2023-02-28T05:21:30.059Z,57.40
2023-02-28T05:24:03.673Z,56.37
2023-02-28T05:26:32.655Z,53.70
2023-02-28T05:29:01.552Z,55.10
2023-02-28T05:31:29.953Z,54.93
2023-02-28T05:34:01.265Z,56.77
2023-02-28T05:36:29.618Z,57.97
2023-02-28T05:38:57.728Z,56.17
2023-02-28T05:41:30.431Z,51.00
2023-02-28T05:44:01.530Z,53.97
2023-02-28T05:46:29.655Z,64.33
2023-02-28T05:49:01.563Z,51.93
2023-02-28T05:51:30.319Z,56.43
2023-02-28T05:54:02.555Z,51.47
2023-02-28T05:56:32.072Z,55.70
2023-02-28T05:59:00.364Z,53.27
2023-02-28T06:01:35.459Z,54.40
2023-02-28T06:04:05.384Z,58.63
2023-02-28T06:06:36.983Z,56.40
2023-02-28T06:09:06.592Z,61.27
2023-02-28T06:11:36.279Z,57.77
2023-02-28T06:14:05.581Z,61.83
2023-02-28T06:16:36.580Z,57.70
2023-02-28T06:19:06.525Z,59.40
2023-02-28T06:21:35.434Z,60.97
2023-02-28T06:24:04.514Z,64.30
2023-02-28T06:26:36.548Z,64.23
2023-02-28T06:29:05.566Z,61.60
2023-02-28T06:31:34.265Z,95.00
2023-02-28T06:34:03.621Z,80.87
2023-02-28T06:36:31.830Z,68.93
2023-02-28T06:39:00.577Z,56.90
2023-02-28T06:41:29.666Z,56.03
2023-02-28T06:44:01.565Z,60.73
2023-02-28T06:46:30.590Z,57.97
2023-02-28T06:48:58.718Z,57.57
2023-02-28T06:51:28.694Z,53.53
2023-02-28T06:53:57.603Z,46.87
2023-02-28T06:56:27.556Z,45.90
2023-02-28T06:58:55.851Z,42.40
2023-02-28T07:01:29.521Z,46.77
2023-02-28T07:03:57.893Z,43.00
2023-02-28T07:06:26.698Z,48.17
2023-02-28T07:08:56.009Z,44.60
2023-02-28T07:11:26.626Z,47.47
2023-02-28T07:13:58.644Z,45.63
2023-02-28T07:16:29.583Z,39.97
2023-02-28T07:18:58.398Z,33.93
2023-02-28T07:21:27.824Z,35.30
2023-02-28T07:23:56.216Z,36.40
2023-02-28T07:26:24.696Z,33.23
2023-02-28T07:28:52.833Z,27.50
2023-02-28T07:31:26.982Z,26.53
2023-02-28T07:33:57.601Z,23.70
2023-02-28T07:36:25.766Z,24.57
2023-02-28T07:38:58.571Z,22.13
2023-02-28T07:41:29.834Z,20.63
2023-02-28T07:44:01.554Z,16.50
2023-02-28T07:46:30.966Z,14.27
2023-02-28T07:49:01.037Z,16.20
2023-02-28T07:51:29.723Z,18.30
2023-02-28T07:53:58.192Z,19.57
2023-02-28T07:56:26.687Z,20.47
2023-02-28T07:58:56.579Z,12.97
2023-02-28T08:01:26.696Z,11.00
2023-02-28T08:03:55.830Z,11.40
2023-02-28T08:06:28.569Z,7.17
2023-02-28T08:08:57.536Z,10.27
2023-02-28T08:11:25.903Z,9.00
2023-02-28T08:13:54.582Z,11.97
2023-02-28T08:16:23.665Z,12.90
2023-02-28T08:18:52.256Z,9.37
2023-02-28T08:21:24.812Z,12.10
2023-02-28T08:23:54.568Z,10.77
2023-02-28T08:26:23.580Z,10.83
2023-02-28T08:28:52.996Z,11.37
2023-02-28T08:31:22.609Z,9.73
2023-02-28T08:33:54.591Z,9.47
2023-02-28T08:36:23.598Z,11.70
2023-02-28T08:38:51.721Z,12.43
2023-02-28T08:41:22.571Z,11.57
2023-02-28T08:43:50.726Z,14.33
2023-02-28T08:46:22.667Z,14.23
2023-02-28T08:48:55.575Z,12.77
2023-02-28T08:51:27.718Z,11.73
2023-02-28T08:54:00.616Z,10.20
2023-02-28T08:56:31.555Z,10.23
2023-02-28T08:59:00.515Z,14.30
2023-02-28T09:01:33.621Z,9.20
2023-02-28T09:04:03.428Z,10.93
2023-02-28T09:06:34.598Z,12.77
2023-02-28T09:09:05.226Z,9.87
2023-02-28T09:11:38.250Z,11.53
2023-02-28T09:14:06.417Z,12.93
2023-02-28T09:16:36.890Z,10.47
2023-02-28T09:19:05.586Z,10.80
2023-02-28T09:21:36.343Z,10.87
2023-02-28T09:24:05.588Z,9.83
2023-02-28T09:26:42.715Z,8.17
2023-02-28T09:29:19.612Z,11.57
2023-02-28T09:31:48.172Z,9.50
2023-02-28T09:34:19.307Z,11.27
2023-02-28T09:36:49.130Z,10.67
2023-02-28T09:39:17.481Z,9.50
2023-02-28T09:41:53.591Z,10.33
2023-02-28T09:44:31.338Z,10.57
2023-02-28T09:47:07.104Z,8.70
2023-02-28T09:49:43.650Z,9.83
2023-02-28T09:52:15.554Z,11.17
2023-02-28T09:54:44.610Z,9.07
2023-02-28T09:57:21.527Z,10.07
2023-02-28T10:00:10.732Z,9.33
2023-02-28T10:03:04.651Z,10.90
2023-02-28T10:05:37.014Z,11.27
2023-02-28T10:08:17.594Z,10.17
2023-02-28T10:10:47.466Z,10.83
2023-02-28T10:13:26.696Z,10.83
2023-02-28T10:16:00.943Z,9.00
2023-02-28T10:18:37.660Z,10.47
2023-02-28T10:21:06.466Z,8.63
2023-02-28T10:23:42.200Z,11.67
2023-02-28T10:26:17.049Z,9.27
2023-02-28T10:28:50.220Z,10.10
2023-02-28T10:31:21.740Z,12.00
2023-02-28T10:33:51.622Z,11.27
2023-02-28T10:36:22.733Z,11.27
2023-02-28T10:38:51.394Z,12.17
2023-02-28T10:41:31.872Z,12.20
2023-02-28T10:44:19.763Z,9.03
2023-02-28T10:46:51.483Z,13.43
2023-02-28T10:49:24.380Z,13.57
2023-02-28T10:51:57.971Z,14.77
2023-02-28T10:54:31.212Z,12.00
2023-02-28T10:57:17.674Z,12.80
2023-02-28T10:59:47.166Z,10.87
2023-02-28T11:02:36.135Z,9.20
2023-02-28T11:05:23.977Z,10.13
2023-02-28T11:07:55.831Z,15.23
2023-02-28T11:10:28.821Z,10.37
2023-02-28T11:12:59.758Z,12.20
2023-02-28T11:16:01.529Z,9.17
2023-02-28T11:18:34.381Z,9.40
2023-02-28T11:21:04.882Z,7.93
2023-02-28T11:23:39.416Z,11.83
2023-02-28T11:26:10.718Z,10.37
2023-02-28T11:28:41.226Z,8.67
2023-02-28T11:31:30.906Z,10.27
2023-02-28T11:34:01.622Z,8.60
2023-02-28T11:36:32.169Z,9.07
2023-02-28T11:39:04.605Z,10.47
2023-02-28T11:42:04.947Z,8.70
2023-02-28T11:44:46.619Z,10.20
2023-02-28T11:47:22.657Z,9.90
2023-02-28T11:50:03.845Z,9.23
2023-02-28T11:52:41.420Z,9.70
2023-02-28T11:55:19.522Z,11.20
2023-02-28T11:58:03.626Z,14.57
2023-02-28T12:00:47.258Z,11.03
2023-02-28T12:03:28.473Z,13.77
2023-02-28T12:06:08.567Z,12.40
2023-02-28T12:08:49.673Z,11.10
2023-02-28T12:11:30.717Z,10.10
2023-02-28T12:14:23.081Z,9.13
2023-02-28T12:17:07.940Z,10.80
2023-02-28T12:19:45.380Z,13.50
2023-02-28T12:22:33.642Z,12.30
2023-02-28T12:25:26.242Z,8.50
2023-02-28T12:27:55.658Z,11.13
2023-02-28T12:30:27.421Z,10.43
2023-02-28T12:33:01.480Z,13.60
2023-02-28T12:35:36.806Z,10.47
2023-02-28T12:38:15.494Z,10.67
2023-02-28T12:40:52.141Z,13.47
2023-02-28T12:43:23.637Z,9.93
2023-02-28T12:45:55.670Z,10.33
2023-02-28T12:48:33.643Z,12.37
2023-02-28T12:51:03.469Z,10.13
2023-02-28T12:53:47.568Z,10.33
2023-02-28T12:56:23.804Z,12.57
2023-02-28T12:58:56.707Z,16.43
2023-02-28T13:01:41.287Z,15.67
2023-02-28T13:04:46.133Z,11.73
2023-02-28T13:07:48.681Z,15.07
2023-02-28T13:10:19.764Z,13.90
2023-02-28T13:12:53.672Z,11.63
2023-02-28T13:15:25.256Z,11.63
2023-02-28T13:17:56.695Z,14.80
2023-02-28T13:20:28.470Z,12.50
2023-02-28T13:22:58.165Z,15.97
2023-02-28T13:25:58.829Z,15.73
2023-02-28T13:29:09.394Z,11.57
2023-02-28T13:32:16.739Z,12.73
2023-02-28T13:35:09.382Z,10.53
2023-02-28T13:37:45.710Z,10.60
2023-02-28T13:40:38.729Z,11.03
2023-02-28T13:43:11.411Z,12.43
2023-02-28T13:45:41.692Z,10.33
2023-02-28T13:48:21.665Z,11.17
2023-02-28T13:50:50.406Z,11.07
2023-02-28T13:53:53.946Z,10.50
2023-02-28T13:56:37.250Z,11.40
2023-02-28T13:59:18.494Z,10.50
2023-02-28T14:02:05.187Z,11.20
2023-02-28T14:04:51.449Z,8.70
2023-02-28T14:07:24.734Z,11.00
2023-02-28T14:10:00.734Z,9.13
2023-02-28T14:12:55.679Z,11.40
2023-02-28T14:15:49.725Z,9.73
2023-02-28T14:18:27.024Z,10.83
2023-02-28T14:21:01.702Z,8.73
2023-02-28T14:23:52.329Z,9.47
2023-02-28T14:26:35.293Z,10.97
2023-02-28T14:29:29.022Z,10.30
2023-02-28T14:32:06.689Z,9.90
2023-02-28T14:34:45.217Z,8.93
2023-02-28T14:37:17.417Z,8.70
2023-02-28T14:39:46.628Z,10.53
2023-02-28T14:42:33.116Z,9.77
2023-02-28T14:45:04.626Z,11.60
2023-02-28T14:47:36.469Z,9.40
2023-02-28T14:50:09.175Z,11.20
2023-02-28T14:52:37.581Z,9.63
2023-02-28T14:55:17.411Z,9.73
2023-02-28T14:57:54.089Z,11.70
2023-02-28T15:00:26.209Z,8.47
2023-02-28T15:02:56.806Z,9.10
2023-02-28T15:05:33.500Z,10.43
2023-02-28T15:08:08.311Z,8.17
2023-02-28T15:10:36.998Z,14.93
2023-02-28T15:13:12.597Z,15.93
2023-02-28T15:16:01.989Z,16.70
2023-02-28T15:18:45.379Z,14.67
2023-02-28T15:21:17.778Z,18.13
2023-02-28T15:23:53.311Z,19.00
2023-02-28T15:26:28.759Z,21.97
2023-02-28T15:29:02.408Z,11.23
2023-02-28T15:31:46.767Z,11.50
2023-02-28T15:34:40.661Z,8.77
2023-02-28T15:37:30.969Z,12.53
2023-02-28T15:40:06.175Z,14.10
2023-02-28T15:42:34.425Z,12.43
2023-02-28T15:45:02.573Z,12.37
2023-02-28T15:47:32.688Z,11.63
2023-02-28T15:50:05.583Z,15.47
2023-02-28T15:52:41.883Z,12.40
2023-02-28T15:55:13.769Z,11.63
2023-02-28T15:57:43.120Z,13.40
2023-02-28T16:00:16.936Z,11.20
2023-02-28T16:02:47.266Z,12.87
2023-02-28T16:05:32.749Z,15.37
2023-02-28T16:08:02.812Z,13.13
2023-02-28T16:10:32.730Z,14.63
2023-02-28T16:13:00.915Z,14.03
2023-02-28T16:15:31.744Z,17.83
2023-02-28T16:18:00.989Z,12.00
2023-02-28T16:20:31.857Z,17.33
2023-02-28T16:23:02.737Z,16.63
2023-02-28T16:25:37.176Z,11.80
2023-02-28T16:28:06.558Z,16.10
2023-02-28T16:30:34.775Z,15.33
2023-02-28T16:33:04.027Z,15.17
2023-02-28T16:35:37.169Z,13.97
2023-02-28T16:38:05.429Z,15.87
2023-02-28T16:40:37.832Z,15.67
2023-02-28T16:43:10.586Z,16.77
2023-02-28T16:45:39.770Z,17.57
2023-02-28T16:48:10.610Z,23.00
2023-02-28T16:50:41.761Z,21.40
2023-02-28T16:53:09.949Z,17.93
2023-02-28T16:55:38.860Z,17.67
2023-02-28T16:58:07.748Z,18.97
2023-02-28T17:00:36.099Z,16.43
2023-02-28T17:03:06.476Z,20.83
2023-02-28T17:05:43.804Z,19.60
2023-02-28T17:08:13.993Z,21.23
2023-02-28T17:10:42.328Z,20.57
2023-02-28T17:13:15.113Z,20.47
2023-02-28T17:15:44.032Z,27.67
2023-02-28T17:18:17.259Z,23.57
2023-02-28T17:20:45.408Z,26.37
2023-02-28T17:23:18.159Z,29.90
2023-02-28T17:25:55.707Z,30.40
2023-02-28T17:28:26.038Z,26.47
2023-02-28T17:30:54.226Z,25.90
2023-02-28T17:33:22.515Z,37.00
2023-02-28T17:35:53.636Z,33.83
2023-02-28T17:38:24.157Z,63.03
2023-02-28T17:41:01.273Z,48.57
2023-02-28T17:43:29.635Z,42.30
2023-02-28T17:45:59.326Z,40.63
2023-02-28T17:48:32.057Z,47.30
2023-02-28T17:51:01.043Z,47.87
2023-02-28T17:53:30.561Z,52.30
2023-02-28T17:55:58.699Z,48.03
2023-02-28T17:58:26.891Z,41.60
2023-02-28T18:00:58.615Z,35.23
2023-02-28T18:03:29.062Z,27.37
2023-02-28T18:05:59.064Z,29.63
2023-02-28T18:08:27.302Z,27.23
2023-02-28T18:11:00.363Z,26.83
2023-02-28T18:13:28.815Z,26.67
2023-02-28T18:15:57.082Z,22.77
2023-02-28T18:18:25.291Z,30.57
2023-02-28T18:20:54.513Z,29.87
2023-02-28T18:23:22.743Z,26.53
2023-02-28T18:25:50.861Z,26.10
2023-02-28T18:28:20.555Z,22.03
2023-02-28T18:30:48.872Z,27.37
2023-02-28T18:33:21.190Z,24.77
2023-02-28T18:35:57.763Z,27.67
2023-02-28T18:38:28.917Z,31.30
2023-02-28T18:41:03.475Z,23.07
2023-02-28T18:43:34.993Z,24.83
2023-02-28T18:46:06.362Z,24.33
2023-02-28T18:48:38.499Z,28.50
2023-02-28T18:51:10.902Z,37.93
2023-02-28T18:53:40.445Z,33.97
2023-02-28T18:56:09.948Z,30.30
2023-02-28T18:58:45.302Z,34.70
2023-02-28T19:01:17.962Z,36.40
2023-02-28T19:03:47.488Z,38.40
2023-02-28T19:06:16.314Z,41.50
2023-02-28T19:08:44.666Z,41.57
2023-02-28T19:11:14.832Z,31.53
2023-02-28T19:13:44.625Z,34.37
2023-02-28T19:16:15.943Z,35.73
2023-02-28T19:18:44.200Z,52.20
2023-02-28T19:21:14.935Z,43.23
2023-02-28T19:23:43.816Z,38.83
2023-02-28T19:26:13.570Z,40.63
2023-02-28T19:28:42.913Z,41.47
2023-02-28T19:31:15.921Z,30.23
2023-02-28T19:33:44.816Z,32.70
2023-02-28T19:36:13.801Z,31.20
2023-02-28T19:38:44.512Z,31.00
2023-02-28T19:41:17.405Z,47.00
2023-02-28T19:43:45.685Z,33.00
2023-02-28T19:46:15.571Z,31.97
2023-02-28T19:48:45.981Z,32.43
2023-02-28T19:53:49.256Z,33.37
2023-02-28T19:56:17.467Z,49.30
2023-02-28T19:58:47.095Z,37.57
2023-02-28T20:01:18.971Z,32.90
2023-02-28T20:03:49.787Z,34.73
2023-02-28T20:06:18.262Z,38.60
2023-02-28T20:08:46.640Z,31.83
2023-02-28T20:11:16.688Z,32.80
2023-02-28T20:13:48.306Z,32.47
2023-02-28T20:16:17.906Z,34.47
2023-02-28T20:18:46.603Z,33.20
2023-02-28T20:21:16.574Z,30.43
2023-02-28T20:23:46.140Z,32.23
2023-02-28T20:26:20.810Z,41.30
2023-02-28T20:28:51.264Z,38.63
2023-02-28T20:31:22.511Z,40.87
2023-02-28T20:33:52.109Z,36.57
2023-02-28T20:36:23.003Z,34.40
2023-02-28T20:38:52.925Z,45.63
2023-02-28T20:41:21.565Z,40.43
2023-02-28T20:43:58.824Z,32.00
2023-02-28T20:46:28.742Z,35.47
2023-02-28T20:49:00.845Z,34.73
2023-02-28T20:51:28.997Z,30.37
2023-02-28T20:53:57.905Z,37.67
2023-02-28T20:56:28.229Z,36.60
2023-02-28T20:59:01.923Z,36.20
2023-02-28T21:01:31.722Z,32.17
2023-02-28T21:04:03.387Z,31.87
2023-02-28T21:06:35.295Z,26.57
2023-02-28T21:09:07.221Z,25.87
2023-02-28T21:11:39.912Z,31.67
2023-02-28T21:14:12.837Z,28.73
2023-02-28T21:16:42.689Z,31.47
2023-02-28T21:19:11.409Z,28.57
2023-02-28T21:21:45.240Z,27.37
2023-02-28T21:24:14.252Z,32.73
2023-02-28T21:26:44.385Z,26.57
2023-02-28T21:29:15.855Z,30.33
2023-02-28T21:31:45.540Z,28.90
2023-02-28T21:34:14.606Z,31.57
2023-02-28T21:36:46.001Z,32.83
2023-02-28T21:39:19.610Z,32.43
2023-02-28T21:41:49.014Z,39.30
2023-02-28T21:44:19.320Z,38.93
2023-02-28T21:46:56.831Z,39.47
2023-02-28T21:49:25.307Z,39.30
2023-02-28T21:51:53.651Z,35.23
2023-02-28T21:54:22.873Z,39.20
2023-02-28T21:56:53.263Z,38.53
2023-02-28T21:59:24.843Z,39.17
2023-02-28T22:01:55.129Z,39.30
2023-02-28T22:04:26.226Z,38.07
2023-02-28T22:06:57.226Z,38.40
2023-02-28T22:09:26.860Z,37.20
2023-02-28T22:11:55.361Z,38.57
2023-02-28T22:14:24.147Z,36.73
2023-02-28T22:16:57.260Z,37.93
2023-02-28T22:19:28.260Z,40.40
2023-02-28T22:21:58.796Z,39.60
2023-02-28T22:24:26.953Z,40.00
2023-02-28T22:26:55.323Z,42.93
2023-02-28T22:29:23.635Z,41.60
2023-02-28T22:31:53.881Z,44.70
2023-02-28T22:34:24.345Z,49.63
2023-02-28T22:36:52.513Z,47.07
2023-02-28T22:39:23.151Z,46.17
2023-02-28T22:41:51.343Z,46.27
2023-02-28T22:44:19.879Z,46.00
2023-02-28T22:46:52.705Z,48.47
2023-02-28T22:49:21.388Z,43.40
2023-02-28T22:51:50.863Z,48.20
2023-02-28T22:54:19.026Z,43.30
2023-02-28T22:56:48.817Z,45.57
2023-02-28T22:59:16.947Z,45.47
2023-02-28T23:01:49.757Z,41.37
2023-02-28T23:04:18.256Z,45.37
2023-02-28T23:06:46.910Z,44.63
2023-02-28T23:09:19.865Z,41.13
2023-02-28T23:11:49.968Z,43.53
2023-02-28T23:14:20.841Z,48.33
2023-02-28T23:16:51.229Z,44.07
2023-02-28T23:19:22.862Z,48.07
2023-02-28T23:21:51.492Z,44.63
2023-02-28T23:24:24.872Z,45.37
2023-02-28T23:26:56.833Z,45.20
2023-02-28T23:29:26.830Z,50.03
2023-02-28T23:31:55.913Z,43.67
2023-02-28T23:34:26.563Z,45.77
2023-02-28T23:36:57.308Z,47.73
2023-02-28T23:39:28.279Z,44.93
2023-02-28T23:41:58.900Z,43.63
2023-02-28T23:44:27.039Z,45.20
2023-02-28T23:46:55.975Z,42.67
2023-02-28T23:49:27.558Z,44.70
2023-02-28T23:51:55.910Z,36.83
2023-02-28T23:54:27.543Z,42.93
2023-02-28T23:56:55.678Z,40.57
2023-02-28T23:59:24.838Z,40.30
